X  Sluiten METAR luchtvaart weer gegevens         LGTS Thessaloniki Macedonia International
Temperatuur
17°C Temperatuur
8°C Dauwpunt
55% Vochtigheid



Wind
7 MPH
11 KM/U
3 M/S
6 KTS



110°
OZO
Huidig weer

Mostly Clear Grotendeels helder
Luchtdruk 1017 (hPa) - 30.03 (inHg)
Zicht 6 (mijl) - 10 (km)
Vliegveld
Vliegveld code LGTS

Locatie : Thessaloniki Macedonia International
Afstand: 85 (mi)

Metar:
METAR LGTS 241620Z 11006KT 9999 FEW030 17/08 Q1017 NOSIG

Tijd: 24-02-2024 18:20 EET